Airfield :
LOGIN :

Register | Disclaimer

   EN    FR    IT 

 










Legend :    VFR   Marginal VFR   IFR   Intensive IFR   Very Intensive IFR
Visi :
Ceiling :
>= 8 km
>= 3000ft
5 to 8 km
1000 to 3000 ft
1500m to 5 km
500 to 1000 ft
800 to 1500m
200 to 500 ft
< 800m
< 200 ft
Symbols :   Thunderstorms  Fog  Heavy snow  Heavy precipitations  Wind > 20 kt
SIGMETs :     Misc.  Thunderstorms  Icing  Turbulence  Mountain Waves  Volcanic Ashes







- Airport Elevation : 74 ft
- IATA code : NDZ


ETMN - Cuxhaven Nordholz Sea AB

CURRENT METAR :
  • 222120Z 26010KT 7000 FEW009 BKN022 BKN042 19/17 Q1005 WHT

EXPIRED METARs :
  • 222020Z 25012KT 5000 BR SCT020 BKN060 19/17 Q1005 WHT
  • 221920Z 29015KT 7000 BKN018 20/17 Q1005 WHT

TAF AMD TAF ETMN
Valid from the 22 at 17:00 until the 23 at 02:00 UTC


221735Z 2217/2302 27015G25KT 8000 NSW SCT015 SCT025 BKN050
TEMPO 2217/2220 VRB20G40KT 3000 TSRA SCT010 BKN020CB CANCEL 1850
No reported NOTAMs for that airfield.
1 SIGMET reported for the Bremen FIR (EDWW) :
 
Frequent thunderstorms and hail
EDWW SIGMET 5 VALID 222015/222215 EDZH
EDWW BREMEN FIR FRQ TSGR FCST S OF N5300 AND E OF E01035 TOP FL420 MOV E WKN=



MET'MAP, your aeronautical weather chart ! - Copyright ORBIFLY December 2007 - Disclaimer

ORBIFLY MET'MAP TEAM :

Programming & Development : Alexandra Zaïnal
Concept & Development : Baudouin d'Aumeries
Co-Development & Prog : Marc-Olivier Méhu
Technical & hardware support : Manuel Goepfert

Contact : metmap@orbifly.com




SOURCES & CREDITS :

   NOAA